Search for airport 
image banner adimage banner adimage banner ad
image banner ad

NV10 - Car Country Heliport

Located in Henderson, United States

ICAO - NV10, IATA -

Data provided by Airmate  

General information

Coordinates: N35°29'38" W114°53'35"
Elevation is 3767 feet MSL.
 
View others Airports in Nevada

Operational data

Special qualification required
Current time UTC:
Current local time:
Weather at : KIFP - Laughlin/Bullhead Intl ( 48 km )
METAR: KIFP 092250Z 20006KT 10SM SKC 35/M09 A2966
TAF: KIFP 091725Z 0918/1018 36017G25KT P6SM SKC FM092000 24008KT P6SM SKC FM092200 19014G23KT P6SM SKC FM100400 16010KT P6SM SKC
View NOTAMs / SUP AIP / TFR affecting this airport [VIEW]
Communications frequencies: [VIEW]

Runways:

Airport contact information

Address: Henderson United States

Satellite view of NV10